Time;durP1;ratioP1;P1;durP2;ratioP2;P2;SDS_P1;SDS_P2;PMS_P1;PMS_P2;Temp;Humidity;BMP_temperature;BMP_pressure;BME280_temperature;BME280_humidity;BME280_pressure;Samples;Min_cycle;Max_cycle;Signal;HPM_P1;HPM_P2
2021/07/31 00:00:32;;;;;;;1.13;0.98;;;25.10;99.90;;;;;;20774620;28;20584;-67
2021/07/31 00:10:36;;;;;;;11.13;0.82;;;25.10;99.90;;;;;;20777637;28;20217;-66
2021/07/31 00:20:42;;;;;;;0.40;0.20;;;25.00;99.90;;;;;;20774316;28;20194;-67
2021/07/31 00:30:46;;;;;;;0.95;0.75;;;24.90;99.90;;;;;;20775037;28;20700;-66
2021/07/31 00:40:51;;;;;;;2.80;1.02;;;24.70;99.90;;;;;;20773961;28;20332;-67
2021/07/31 00:50:55;;;;;;;0.50;0.43;;;24.60;99.90;;;;;;20773229;28;20195;-67
2021/07/31 01:01:00;;;;;;;13.40;2.25;;;24.60;99.90;;;;;;20781713;28;20480;-66
2021/07/31 01:11:04;;;;;;;1.52;1.00;;;24.60;99.90;;;;;;20786345;28;20194;-67
2021/07/31 01:21:11;;;;;;;0.70;0.70;;;24.70;99.90;;;;;;20788321;28;20612;-65
2021/07/31 01:31:16;;;;;;;0.30;0.30;;;24.70;99.90;;;;;;20786692;28;20283;-65
2021/07/31 01:41:20;;;;;;;0.28;0.17;;;24.60;99.90;;;;;;20786861;28;20190;-67
2021/07/31 01:51:25;;;;;;;0.45;0.45;;;24.60;99.90;;;;;;20783970;28;20221;-67
2021/07/31 02:01:29;;;;;;;0.75;0.65;;;24.50;99.90;;;;;;20785965;28;20790;-66
2021/07/31 02:11:34;;;;;;;1.40;0.75;;;24.60;99.90;;;;;;20783609;28;20198;-65
2021/07/31 02:21:37;;;;;;;4.13;0.77;;;24.20;99.90;;;;;;20785201;28;20210;-67
2021/07/31 02:31:42;;;;;;;1.85;0.55;;;24.20;99.90;;;;;;20782177;28;20281;-66
2021/07/31 02:41:46;;;;;;;0.47;0.20;;;24.30;99.90;;;;;;20782002;28;20236;-66
2021/07/31 02:51:52;;;;;;;7.65;0.95;;;24.20;99.90;;;;;;20780524;28;20256;-66
2021/07/31 03:01:56;;;;;;;0.45;0.45;;;24.20;99.90;;;;;;20780390;28;20252;-67
2021/07/31 03:12:01;;;;;;;3.60;0.40;;;24.00;99.90;;;;;;20780685;28;20213;-67
2021/07/31 03:22:05;;;;;;;17.55;0.95;;;24.00;99.90;;;;;;20778103;28;20324;-66
2021/07/31 03:32:10;;;;;;;0.40;0.40;;;23.50;99.90;;;;;;20780337;28;20202;-66
2021/07/31 03:42:14;;;;;;;0.27;0.27;;;23.10;99.90;;;;;;20778081;28;20230;-66
2021/07/31 03:52:18;;;;;;;0.40;0.30;;;23.00;99.90;;;;;;20780834;28;20202;-66
2021/07/31 04:02:22;;;;;;;2.53;0.63;;;22.90;99.90;;;;;;20776934;28;20238;-67
2021/07/31 04:12:27;;;;;;;0.20;0.20;;;22.80;99.90;;;;;;20778163;28;20292;-66
2021/07/31 04:22:31;;;;;;;1.17;0.37;;;22.80;99.90;;;;;;20775325;28;20573;-66
2021/07/31 04:32:36;;;;;;;6.53;0.87;;;22.60;99.90;;;;;;20780060;28;20248;-66
2021/07/31 04:42:39;;;;;;;0.40;0.30;;;22.70;99.90;;;;;;20791222;28;20232;-66
2021/07/31 04:52:45;;;;;;;0.30;0.15;;;23.00;99.90;;;;;;20790223;28;20206;-65
2021/07/31 05:02:48;;;;;;;1.33;0.55;;;23.30;99.90;;;;;;20787738;28;20368;-66
2021/07/31 05:12:54;;;;;;;1.35;0.47;;;23.40;99.90;;;;;;20792254;28;20202;-66
2021/07/31 05:22:57;;;;;;;0.88;0.57;;;23.60;99.90;;;;;;20771535;28;20222;-66
2021/07/31 05:33:02;;;;;;;0.57;0.57;;;23.70;99.90;;;;;;20790721;28;20538;-66
2021/07/31 05:43:06;;;;;;;0.77;0.77;;;23.70;99.90;;;;;;20786249;28;20218;-67
2021/07/31 05:53:12;;;;;;;1.52;1.02;;;23.80;99.90;;;;;;20787152;28;20214;-66
2021/07/31 06:03:15;;;;;;;0.20;0.20;;;23.80;99.90;;;;;;20784400;28;20573;-66
2021/07/31 06:13:20;;;;;;;1.38;0.95;;;23.90;99.90;;;;;;20783004;28;20198;-66
2021/07/31 06:23:24;;;;;;;1.67;1.13;;;24.20;99.90;;;;;;20782131;28;20775;-66
2021/07/31 06:33:29;;;;;;;1.75;1.20;;;24.70;99.90;;;;;;20783083;28;20198;-67
2021/07/31 06:43:33;;;;;;;4.25;1.75;;;25.20;99.90;;;;;;20780729;28;20633;-67
2021/07/31 06:53:43;;;;;;;0.93;0.93;;;25.30;99.90;;;;;;20777332;28;20683;-66
2021/07/31 07:03:50;;;;;;;0.57;0.55;;;25.80;99.90;;;;;;20777768;28;20863;-66
2021/07/31 07:13:56;;;;;;;0.68;0.68;;;26.10;99.90;;;;;;20774938;28;20233;-67
2021/07/31 07:24:00;;;;;;;1.05;0.75;;;26.10;99.90;;;;;;20776466;28;20225;-67
2021/07/31 07:34:05;;;;;;;1.70;0.88;;;26.00;99.90;;;;;;20772767;28;20508;-67
2021/07/31 07:44:09;;;;;;;9.40;1.13;;;26.00;99.90;;;;;;20772619;28;20477;-66
2021/07/31 07:54:14;;;;;;;1.35;0.93;;;26.00;99.90;;;;;;20754413;28;20501;-67
2021/07/31 08:04:18;;;;;;;0.63;0.63;;;26.10;99.90;;;;;;20767877;28;20244;-64
2021/07/31 08:14:22;;;;;;;1.10;1.02;;;26.50;99.90;;;;;;20774720;28;20202;-66
2021/07/31 08:24:26;;;;;;;1.23;0.63;;;26.50;99.90;;;;;;20772368;28;20332;-67
2021/07/31 08:34:31;;;;;;;0.65;0.65;;;26.60;99.90;;;;;;20772055;28;20209;-66
2021/07/31 08:44:35;;;;;;;1.20;0.85;;;26.70;99.90;;;;;;20770722;28;20517;-66
2021/07/31 08:54:41;;;;;;;1.35;0.80;;;27.00;99.90;;;;;;20772126;28;20725;-66
2021/07/31 09:04:45;;;;;;;0.95;0.82;;;27.20;99.90;;;;;;20767205;28;20894;-66
2021/07/31 09:14:50;;;;;;;1.15;0.95;;;27.20;99.90;;;;;;20770334;28;20843;-66
2021/07/31 09:25:09;;;;;;;0.40;0.40;;;27.80;99.90;;;;;;20782255;28;20244;-66
2021/07/31 09:35:22;;;;;;;0.75;0.75;;;28.00;99.90;;;;;;20782296;28;20201;-66
2021/07/31 09:45:34;;;;;;;0.90;0.63;;;28.30;99.90;;;;;;20781647;28;20767;-67
2021/07/31 09:55:46;;;;;;;1.30;0.90;;;27.90;99.90;;;;;;20784311;28;20202;-67
2021/07/31 10:05:52;;;;;;;3.63;0.57;;;28.60;99.90;;;;;;20764933;28;20261;-65
2021/07/31 10:16:10;;;;;;;0.60;0.60;;;28.80;99.90;;;;;;20776802;28;20266;-65
2021/07/31 10:26:13;;;;;;;0.77;0.77;;;29.50;99.90;;;;;;20774743;28;20332;-68
2021/07/31 10:36:35;;;;;;;1.17;1.08;;;29.30;99.90;;;;;;20781408;28;20212;-65
2021/07/31 10:46:39;;;;;;;1.52;1.17;;;29.00;99.90;;;;;;20778352;28;21047;-66
2021/07/31 10:57:01;;;;;;;2.63;1.40;;;29.30;99.90;;;;;;20775737;28;20209;-66
2021/07/31 11:07:14;;;;;;;1.15;0.88;;;28.90;99.90;;;;;;20775549;28;20726;-68
2021/07/31 11:17:19;;;;;;;1.02;1.00;;;28.50;99.90;;;;;;20773674;28;20208;-66
2021/07/31 11:27:23;;;;;;;1.00;0.80;;;28.00;99.90;;;;;;20774518;28;20229;-68
2021/07/31 11:37:33;;;;;;;1.85;1.00;;;27.80;99.90;;;;;;20773384;28;20549;-65
2021/07/31 11:47:37;;;;;;;3.17;2.05;;;27.80;99.90;;;;;;20773452;28;20754;-66
2021/07/31 11:57:43;;;;;;;1.88;0.70;;;27.20;99.90;;;;;;20774762;28;20277;-66
2021/07/31 12:07:54;;;;;;;2.38;1.88;;;27.10;99.90;;;;;;20772380;28;20261;-66
2021/07/31 12:18:05;;;;;;;1.10;0.90;;;27.00;99.90;;;;;;20773081;28;20686;-66
2021/07/31 12:28:10;;;;;;;0.80;0.75;;;26.70;99.90;;;;;;20770728;28;20221;-65
2021/07/31 12:38:18;;;;;;;1.25;1.15;;;26.50;99.90;;;;;;20771493;28;20199;-66
2021/07/31 12:48:22;;;;;;;1.33;1.10;;;26.20;99.90;;;;;;20773077;28;20229;-67
2021/07/31 12:58:28;;;;;;;0.82;0.82;;;26.40;99.90;;;;;;20783176;28;20293;-65
2021/07/31 13:08:31;;;;;;;0.80;0.60;;;26.20;99.90;;;;;;20786750;28;20237;-66
2021/07/31 13:18:36;;;;;;;2.25;2.05;;;25.90;99.90;;;;;;20785798;28;20202;-67
2021/07/31 13:28:40;;;;;;;1.42;0.73;;;26.10;99.90;;;;;;20787163;28;20691;-66
2021/07/31 13:38:48;;;;;;;1.75;0.95;;;27.00;99.90;;;;;;20764361;28;20520;-66
2021/07/31 13:48:52;;;;;;;1.80;0.88;;;31.90;99.90;;;;;;20783596;28;20225;-65
2021/07/31 13:58:57;;;;;;;1.83;1.38;;;32.90;99.90;;;;;;20785026;28;20336;-64
2021/07/31 14:09:01;;;;;;;1.25;1.13;;;33.80;99.90;;;;;;20782897;28;20241;-64
2021/07/31 14:19:06;;;;;;;1.40;1.27;;;33.60;99.90;;;;;;20783881;28;20262;-65
2021/07/31 14:29:10;;;;;;;3.05;1.35;;;33.40;99.90;;;;;;20778878;28;20222;-65
2021/07/31 14:39:15;;;;;;;2.30;1.08;;;35.50;99.90;;;;;;20781032;28;20198;-67
2021/07/31 14:49:20;;;;;;;1.45;0.98;;;33.70;99.90;;;;;;20779109;28;20237;-65
2021/07/31 14:59:25;;;;;;;2.60;0.50;;;32.40;99.90;;;;;;20781163;28;20217;-65
2021/07/31 15:09:29;;;;;;;1.02;0.80;;;32.50;99.90;;;;;;20775162;28;20580;-65
2021/07/31 15:19:35;;;;;;;1.27;1.17;;;31.00;99.90;;;;;;20776430;28;20546;-66
2021/07/31 15:29:39;;;;;;;4.38;1.30;;;30.80;99.90;;;;;;20776639;28;20222;-65
2021/07/31 15:39:44;;;;;;;1.50;0.93;;;29.40;99.90;;;;;;20769755;28;20340;-67
2021/07/31 15:49:51;;;;;;;1.50;1.05;;;28.60;99.90;;;;;;20794986;28;20230;-66
2021/07/31 15:59:57;;;;;;;0.68;0.57;;;28.20;99.90;;;;;;20775370;28;20202;-66
2021/07/31 16:10:00;;;;;;;1.15;0.93;;;27.10;99.90;;;;;;20775331;28;20241;-66
2021/07/31 16:20:06;;;;;;;2.28;0.77;;;26.90;99.90;;;;;;20774548;28;20202;-68
2021/07/31 16:30:11;;;;;;;5.82;0.98;;;26.60;99.90;;;;;;20780835;28;20978;-66
2021/07/31 16:40:16;;;;;;;0.63;0.50;;;26.30;99.90;;;;;;20782490;28;20198;-65
2021/07/31 16:50:19;;;;;;;0.88;0.47;;;26.20;99.90;;;;;;20783787;28;20664;-66
2021/07/31 17:00:24;;;;;;;1.13;0.98;;;26.00;99.90;;;;;;20784810;28;20222;-65
2021/07/31 17:10:28;;;;;;;1.25;0.80;;;25.80;99.90;;;;;;20784202;28;20234;-63
2021/07/31 17:20:33;;;;;;;0.75;0.75;;;26.00;99.90;;;;;;20765159;28;20213;-67
2021/07/31 17:30:37;;;;;;;1.58;1.40;;;25.20;99.90;;;;;;20785205;28;20610;-63
2021/07/31 17:40:42;;;;;;;0.93;0.50;;;24.80;99.90;;;;;;20780663;28;20198;-68
2021/07/31 17:50:46;;;;;;;0.98;0.90;;;25.20;99.90;;;;;;20783919;28;20572;-64
2021/07/31 18:00:51;;;;;;;7.20;0.77;;;25.20;99.90;;;;;;20783706;28;20222;-67
2021/07/31 18:10:55;;;;;;;1.50;0.80;;;25.60;99.90;;;;;;20799930;28;20744;-64
2021/07/31 18:21:00;;;;;;;0.85;0.75;;;25.30;99.90;;;;;;20863037;28;20201;-67
2021/07/31 18:31:04;;;;;;;2.25;1.45;;;25.40;99.90;;;;;;20863192;28;20654;-64
2021/07/31 18:41:10;;;;;;;0.82;0.75;;;25.30;99.90;;;;;;20838515;28;20202;-64
2021/07/31 18:51:14;;;;;;;0.30;0.30;;;25.20;99.90;;;;;;20776653;28;20692;-65
2021/07/31 19:01:18;;;;;;;1.30;0.22;;;25.10;99.90;;;;;;20777617;28;20230;-65
2021/07/31 19:11:22;;;;;;;3.60;0.50;;;25.20;99.90;;;;;;20778244;28;20222;-65
2021/07/31 19:21:27;;;;;;;1.55;0.40;;;25.00;99.90;;;;;;20778562;28;20202;-65
2021/07/31 19:31:31;;;;;;;0.50;0.35;;;25.00;99.90;;;;;;20776046;28;20226;-65
2021/07/31 19:41:36;;;;;;;0.85;0.50;;;24.60;99.90;;;;;;20775069;28;21091;-65
2021/07/31 19:51:40;;;;;;;0.22;0.22;;;24.90;99.90;;;;;;20757505;28;20761;-67
2021/07/31 20:15:10;;;;;;;0.33;0.30;;;23.90;99.90;;;;;;21334383;27;20278;-67
2021/07/31 20:25:14;;;;;;;0.37;0.17;;;18.80;99.90;;;;;;21181108;27;20218;-66
2021/07/31 20:35:19;;;;;;;0.20;0.10;;;18.30;99.90;;;;;;21232072;27;20238;-67
2021/07/31 20:45:22;;;;;;;0.60;0.50;;;18.40;99.90;;;;;;21262107;27;20229;-68
2021/07/31 20:55:31;;;;;;;0.20;0.10;;;18.60;99.90;;;;;;21260545;27;20247;-67
2021/07/31 21:05:34;;;;;;;0.20;0.00;;;18.40;99.90;;;;;;21259525;27;20222;-67
2021/07/31 21:15:39;;;;;;;0.23;0.13;;;18.50;99.90;;;;;;21205783;27;20727;-67
2021/07/31 21:25:43;;;;;;;0.20;0.00;;;18.30;99.90;;;;;;21201427;27;20215;-68
2021/07/31 21:35:48;;;;;;;1.90;0.73;;;18.10;99.90;;;;;;21202931;27;20532;-69
2021/07/31 21:45:52;;;;;;;0.50;0.37;;;18.60;99.90;;;;;;21200961;27;20656;-70
2021/07/31 21:55:57;;;;;;;0.20;0.00;;;19.00;99.90;;;;;;21201142;27;20206;-68
2021/07/31 22:06:02;;;;;;;1.83;0.13;;;19.00;99.90;;;;;;21173250;27;20459;-69
2021/07/31 22:16:07;;;;;;;0.20;0.10;;;19.10;99.90;;;;;;21113606;28;20195;-67
2021/07/31 22:26:11;;;;;;;1.17;0.67;;;19.10;99.90;;;;;;21112358;28;20852;-68
2021/07/31 22:36:16;;;;;;;2.73;1.60;;;19.20;99.90;;;;;;21113790;28;20195;-69
2021/07/31 22:46:20;;;;;;;0.20;0.10;;;18.80;99.90;;;;;;21112796;28;20960;-68
2021/07/31 22:56:25;;;;;;;0.20;0.10;;;18.70;99.90;;;;;;21111540;28;20222;-69
2021/07/31 23:06:29;;;;;;;0.73;0.20;;;18.70;99.90;;;;;;21153813;27;20249;-69
2021/07/31 23:16:34;;;;;;;0.20;0.20;;;18.80;99.90;;;;;;21194750;27;20195;-68
2021/07/31 23:26:38;;;;;;;0.20;0.10;;;18.80;99.90;;;;;;21194924;27;20450;-68
2021/07/31 23:36:43;;;;;;;0.20;0.00;;;18.90;99.90;;;;;;21192774;27;20191;-68
2021/07/31 23:46:47;;;;;;;0.20;0.00;;;19.00;99.90;;;;;;21194141;27;20226;-70
2021/07/31 23:56:52;;;;;;;0.20;0.10;;;18.90;99.90;;;;;;21192438;27;20656;-70
